sensor_id;sensor_type;location;lat;lon;timestamp;P1;durP1;ratioP1;P2;durP2;ratioP2
2888;SDS011;1453;42.708;23.282;2023-12-20T00:00:01;93.82;;;49.08;;
2888;SDS011;1453;42.708;23.282;2023-12-20T00:02:28;89.80;;;45.22;;
2888;SDS011;1453;42.708;23.282;2023-12-20T00:04:54;82.07;;;43.23;;
2888;SDS011;1453;42.708;23.282;2023-12-20T00:07:21;88.72;;;44.55;;
2888;SDS011;1453;42.708;23.282;2023-12-20T00:09:48;84.93;;;43.65;;
2888;SDS011;1453;42.708;23.282;2023-12-20T00:12:16;84.63;;;44.55;;
2888;SDS011;1453;42.708;23.282;2023-12-20T00:14:43;87.43;;;48.03;;
2888;SDS011;1453;42.708;23.282;2023-12-20T00:17:10;99.40;;;49.90;;
2888;SDS011;1453;42.708;23.282;2023-12-20T00:19:36;96.00;;;50.60;;
2888;SDS011;1453;42.708;23.282;2023-12-20T00:22:02;106.07;;;54.80;;
2888;SDS011;1453;42.708;23.282;2023-12-20T00:24:32;95.50;;;50.45;;
2888;SDS011;1453;42.708;23.282;2023-12-20T00:27:00;106.30;;;49.05;;
2888;SDS011;1453;42.708;23.282;2023-12-20T00:29:28;77.78;;;44.25;;
2888;SDS011;1453;42.708;23.282;2023-12-20T00:31:54;77.70;;;38.67;;
2888;SDS011;1453;42.708;23.282;2023-12-20T00:34:20;67.07;;;36.23;;
2888;SDS011;1453;42.708;23.282;2023-12-20T00:36:46;61.40;;;33.53;;
2888;SDS011;1453;42.708;23.282;2023-12-20T00:39:14;69.38;;;36.65;;
2888;SDS011;1453;42.708;23.282;2023-12-20T00:41:42;90.05;;;44.65;;
2888;SDS011;1453;42.708;23.282;2023-12-20T00:44:09;92.93;;;49.47;;
2888;SDS011;1453;42.708;23.282;2023-12-20T00:46:38;82.15;;;46.00;;
2888;SDS011;1453;42.708;23.282;2023-12-20T00:49:04;102.40;;;54.47;;
2888;SDS011;1453;42.708;23.282;2023-12-20T00:51:30;133.77;;;67.37;;
2888;SDS011;1453;42.708;23.282;2023-12-20T00:53:56;169.57;;;81.38;;
2888;SDS011;1453;42.708;23.282;2023-12-20T00:56:23;148.88;;;83.07;;
2888;SDS011;1453;42.708;23.282;2023-12-20T00:58:49;158.40;;;75.40;;
2888;SDS011;1453;42.708;23.282;2023-12-20T01:01:15;108.60;;;59.10;;
2888;SDS011;1453;42.708;23.282;2023-12-20T01:03:41;128.32;;;66.13;;
2888;SDS011;1453;42.708;23.282;2023-12-20T01:06:07;93.80;;;52.70;;
2888;SDS011;1453;42.708;23.282;2023-12-20T01:08:33;85.30;;;45.73;;
2888;SDS011;1453;42.708;23.282;2023-12-20T01:11:00;87.43;;;48.08;;
2888;SDS011;1453;42.708;23.282;2023-12-20T01:13:29;85.15;;;45.58;;
2888;SDS011;1453;42.708;23.282;2023-12-20T01:15:55;82.25;;;44.88;;
2888;SDS011;1453;42.708;23.282;2023-12-20T01:18:21;81.57;;;40.80;;
2888;SDS011;1453;42.708;23.282;2023-12-20T01:20:47;85.40;;;43.13;;
2888;SDS011;1453;42.708;23.282;2023-12-20T01:23:12;83.67;;;44.60;;
2888;SDS011;1453;42.708;23.282;2023-12-20T01:25:38;82.63;;;46.10;;
2888;SDS011;1453;42.708;23.282;2023-12-20T01:28:04;93.50;;;47.75;;
2888;SDS011;1453;42.708;23.282;2023-12-20T01:30:31;85.68;;;45.30;;
2888;SDS011;1453;42.708;23.282;2023-12-20T01:32:56;87.00;;;43.30;;
2888;SDS011;1453;42.708;23.282;2023-12-20T01:35:25;80.82;;;42.95;;
2888;SDS011;1453;42.708;23.282;2023-12-20T01:37:51;80.27;;;42.70;;
2888;SDS011;1453;42.708;23.282;2023-12-20T01:40:17;103.22;;;48.38;;
2888;SDS011;1453;42.708;23.282;2023-12-20T01:42:44;117.65;;;56.28;;
2888;SDS011;1453;42.708;23.282;2023-12-20T01:45:10;100.33;;;47.03;;
2888;SDS011;1453;42.708;23.282;2023-12-20T01:47:36;96.17;;;48.67;;
2888;SDS011;1453;42.708;23.282;2023-12-20T01:50:02;92.22;;;46.47;;
2888;SDS011;1453;42.708;23.282;2023-12-20T01:52:30;110.80;;;53.25;;
2888;SDS011;1453;42.708;23.282;2023-12-20T01:54:58;95.00;;;49.25;;
2888;SDS011;1453;42.708;23.282;2023-12-20T01:57:27;96.50;;;48.97;;
2888;SDS011;1453;42.708;23.282;2023-12-20T01:59:54;101.95;;;52.63;;
2888;SDS011;1453;42.708;23.282;2023-12-20T02:02:20;94.55;;;47.65;;
2888;SDS011;1453;42.708;23.282;2023-12-20T02:04:46;92.00;;;46.57;;
2888;SDS011;1453;42.708;23.282;2023-12-20T02:07:12;113.95;;;47.90;;
2888;SDS011;1453;42.708;23.282;2023-12-20T02:09:38;280.67;;;56.00;;
2888;SDS011;1453;42.708;23.282;2023-12-20T02:12:05;94.53;;;44.05;;
2888;SDS011;1453;42.708;23.282;2023-12-20T02:14:31;97.63;;;42.17;;
2888;SDS011;1453;42.708;23.282;2023-12-20T02:16:57;207.48;;;50.03;;
2888;SDS011;1453;42.708;23.282;2023-12-20T02:19:23;145.82;;;47.65;;
2888;SDS011;1453;42.708;23.282;2023-12-20T02:21:49;117.80;;;53.50;;
2888;SDS011;1453;42.708;23.282;2023-12-20T02:24:18;178.52;;;50.67;;
2888;SDS011;1453;42.708;23.282;2023-12-20T02:26:45;166.45;;;55.30;;
2888;SDS011;1453;42.708;23.282;2023-12-20T02:29:11;127.00;;;52.45;;
2888;SDS011;1453;42.708;23.282;2023-12-20T02:31:38;148.30;;;52.35;;
2888;SDS011;1453;42.708;23.282;2023-12-20T02:34:06;139.10;;;52.58;;
2888;SDS011;1453;42.708;23.282;2023-12-20T02:36:38;150.18;;;55.20;;
2888;SDS011;1453;42.708;23.282;2023-12-20T02:39:07;136.30;;;52.08;;
2888;SDS011;1453;42.708;23.282;2023-12-20T02:41:33;204.95;;;58.65;;
2888;SDS011;1453;42.708;23.282;2023-12-20T02:44:04;200.73;;;55.70;;
2888;SDS011;1453;42.708;23.282;2023-12-20T02:46:30;224.80;;;60.83;;
2888;SDS011;1453;42.708;23.282;2023-12-20T02:48:56;163.40;;;49.17;;
2888;SDS011;1453;42.708;23.282;2023-12-20T02:51:26;347.95;;;65.97;;
2888;SDS011;1453;42.708;23.282;2023-12-20T02:53:52;189.00;;;52.33;;
2888;SDS011;1453;42.708;23.282;2023-12-20T02:56:18;209.77;;;51.55;;
2888;SDS011;1453;42.708;23.282;2023-12-20T02:58:45;181.93;;;49.38;;
2888;SDS011;1453;42.708;23.282;2023-12-20T03:01:14;128.23;;;45.58;;
2888;SDS011;1453;42.708;23.282;2023-12-20T03:03:40;280.90;;;56.75;;
2888;SDS011;1453;42.708;23.282;2023-12-20T03:06:07;124.65;;;44.00;;
2888;SDS011;1453;42.708;23.282;2023-12-20T03:08:34;341.50;;;57.67;;
2888;SDS011;1453;42.708;23.282;2023-12-20T03:11:02;207.95;;;52.25;;
2888;SDS011;1453;42.708;23.282;2023-12-20T03:13:28;281.13;;;53.78;;
2888;SDS011;1453;42.708;23.282;2023-12-20T03:16:01;191.35;;;47.47;;
2888;SDS011;1453;42.708;23.282;2023-12-20T03:18:35;329.13;;;62.00;;
2888;SDS011;1453;42.708;23.282;2023-12-20T03:21:02;129.98;;;49.47;;
2888;SDS011;1453;42.708;23.282;2023-12-20T03:23:29;113.28;;;43.05;;
2888;SDS011;1453;42.708;23.282;2023-12-20T03:25:57;347.73;;;63.00;;
2888;SDS011;1453;42.708;23.282;2023-12-20T03:28:26;135.65;;;46.78;;
2888;SDS011;1453;42.708;23.282;2023-12-20T03:30:53;311.20;;;62.03;;
2888;SDS011;1453;42.708;23.282;2023-12-20T03:33:19;159.40;;;47.30;;
2888;SDS011;1453;42.708;23.282;2023-12-20T03:35:44;175.43;;;47.75;;
2888;SDS011;1453;42.708;23.282;2023-12-20T03:38:10;99.33;;;40.47;;
2888;SDS011;1453;42.708;23.282;2023-12-20T03:40:36;117.03;;;48.00;;
2888;SDS011;1453;42.708;23.282;2023-12-20T03:43:02;115.40;;;48.53;;
2888;SDS011;1453;42.708;23.282;2023-12-20T03:45:30;116.57;;;47.40;;
2888;SDS011;1453;42.708;23.282;2023-12-20T03:47:56;113.90;;;46.55;;
2888;SDS011;1453;42.708;23.282;2023-12-20T03:50:22;102.88;;;46.22;;
2888;SDS011;1453;42.708;23.282;2023-12-20T03:52:48;86.22;;;37.15;;
2888;SDS011;1453;42.708;23.282;2023-12-20T03:55:16;130.10;;;47.00;;
2888;SDS011;1453;42.708;23.282;2023-12-20T03:57:46;180.35;;;44.03;;
2888;SDS011;1453;42.708;23.282;2023-12-20T04:00:12;200.65;;;47.00;;
2888;SDS011;1453;42.708;23.282;2023-12-20T04:02:39;120.13;;;43.97;;
2888;SDS011;1453;42.708;23.282;2023-12-20T04:05:07;202.40;;;51.40;;
2888;SDS011;1453;42.708;23.282;2023-12-20T04:07:35;165.05;;;42.75;;
2888;SDS011;1453;42.708;23.282;2023-12-20T04:10:06;276.42;;;76.25;;
2888;SDS011;1453;42.708;23.282;2023-12-20T04:12:35;144.93;;;43.83;;
2888;SDS011;1453;42.708;23.282;2023-12-20T04:15:01;154.77;;;44.17;;
2888;SDS011;1453;42.708;23.282;2023-12-20T04:17:33;128.40;;;45.80;;
2888;SDS011;1453;42.708;23.282;2023-12-20T04:20:01;102.30;;;45.78;;
2888;SDS011;1453;42.708;23.282;2023-12-20T04:22:27;115.03;;;43.38;;
2888;SDS011;1453;42.708;23.282;2023-12-20T04:24:53;172.77;;;75.97;;
2888;SDS011;1453;42.708;23.282;2023-12-20T04:27:19;119.93;;;48.00;;
2888;SDS011;1453;42.708;23.282;2023-12-20T04:29:46;119.57;;;46.65;;
2888;SDS011;1453;42.708;23.282;2023-12-20T04:32:12;135.45;;;50.47;;
2888;SDS011;1453;42.708;23.282;2023-12-20T04:34:38;160.63;;;61.47;;
2888;SDS011;1453;42.708;23.282;2023-12-20T04:37:09;202.75;;;73.15;;
2888;SDS011;1453;42.708;23.282;2023-12-20T04:39:34;222.10;;;71.30;;
2888;SDS011;1453;42.708;23.282;2023-12-20T04:42:01;413.23;;;124.63;;
2888;SDS011;1453;42.708;23.282;2023-12-20T04:44:29;273.65;;;95.50;;
2888;SDS011;1453;42.708;23.282;2023-12-20T04:46:56;190.43;;;59.58;;
2888;SDS011;1453;42.708;23.282;2023-12-20T04:49:28;190.05;;;49.95;;
2888;SDS011;1453;42.708;23.282;2023-12-20T04:51:54;286.83;;;61.75;;
2888;SDS011;1453;42.708;23.282;2023-12-20T04:54:21;171.65;;;47.67;;
2888;SDS011;1453;42.708;23.282;2023-12-20T04:56:47;187.75;;;52.72;;
2888;SDS011;1453;42.708;23.282;2023-12-20T04:59:16;221.18;;;54.35;;
2888;SDS011;1453;42.708;23.282;2023-12-20T05:01:45;169.80;;;56.03;;
2888;SDS011;1453;42.708;23.282;2023-12-20T05:04:14;144.95;;;51.28;;
2888;SDS011;1453;42.708;23.282;2023-12-20T05:06:46;291.48;;;67.75;;
2888;SDS011;1453;42.708;23.282;2023-12-20T05:09:15;373.92;;;74.75;;
2888;SDS011;1453;42.708;23.282;2023-12-20T05:11:42;232.95;;;60.38;;
2888;SDS011;1453;42.708;23.282;2023-12-20T05:14:08;169.40;;;56.20;;
2888;SDS011;1453;42.708;23.282;2023-12-20T05:16:35;179.93;;;57.28;;
2888;SDS011;1453;42.708;23.282;2023-12-20T05:19:01;278.35;;;64.93;;
2888;SDS011;1453;42.708;23.282;2023-12-20T05:21:31;238.65;;;63.55;;
2888;SDS011;1453;42.708;23.282;2023-12-20T05:23:58;411.77;;;85.43;;
2888;SDS011;1453;42.708;23.282;2023-12-20T05:26:25;133.82;;;52.72;;
2888;SDS011;1453;42.708;23.282;2023-12-20T05:31:17;147.47;;;55.60;;
2888;SDS011;1453;42.708;23.282;2023-12-20T05:33:43;285.70;;;66.80;;
2888;SDS011;1453;42.708;23.282;2023-12-20T05:36:10;256.00;;;67.47;;
2888;SDS011;1453;42.708;23.282;2023-12-20T05:38:39;241.18;;;61.63;;
2888;SDS011;1453;42.708;23.282;2023-12-20T05:41:06;234.10;;;67.75;;
2888;SDS011;1453;42.708;23.282;2023-12-20T05:43:35;291.10;;;69.30;;
2888;SDS011;1453;42.708;23.282;2023-12-20T05:46:03;174.75;;;66.57;;
2888;SDS011;1453;42.708;23.282;2023-12-20T05:48:29;454.10;;;95.00;;
2888;SDS011;1453;42.708;23.282;2023-12-20T05:50:57;388.27;;;88.70;;
2888;SDS011;1453;42.708;23.282;2023-12-20T05:53:28;263.45;;;69.13;;
2888;SDS011;1453;42.708;23.282;2023-12-20T05:55:55;154.05;;;59.00;;
2888;SDS011;1453;42.708;23.282;2023-12-20T05:58:21;270.38;;;74.88;;
2888;SDS011;1453;42.708;23.282;2023-12-20T06:00:47;277.75;;;69.10;;
2888;SDS011;1453;42.708;23.282;2023-12-20T06:03:16;301.33;;;75.30;;
2888;SDS011;1453;42.708;23.282;2023-12-20T06:05:46;358.52;;;79.72;;
2888;SDS011;1453;42.708;23.282;2023-12-20T06:08:12;247.80;;;68.60;;
2888;SDS011;1453;42.708;23.282;2023-12-20T06:10:39;493.67;;;99.35;;
2888;SDS011;1453;42.708;23.282;2023-12-20T06:13:06;409.45;;;81.00;;
2888;SDS011;1453;42.708;23.282;2023-12-20T06:15:33;247.05;;;62.10;;
2888;SDS011;1453;42.708;23.282;2023-12-20T06:18:00;204.32;;;58.90;;
2888;SDS011;1453;42.708;23.282;2023-12-20T06:20:27;142.55;;;53.25;;
2888;SDS011;1453;42.708;23.282;2023-12-20T06:22:54;158.15;;;51.25;;
2888;SDS011;1453;42.708;23.282;2023-12-20T06:25:31;173.07;;;53.95;;
2888;SDS011;1453;42.708;23.282;2023-12-20T06:28:01;173.02;;;52.70;;
2888;SDS011;1453;42.708;23.282;2023-12-20T06:30:30;155.63;;;50.80;;
2888;SDS011;1453;42.708;23.282;2023-12-20T06:32:59;250.75;;;57.38;;
2888;SDS011;1453;42.708;23.282;2023-12-20T06:35:25;135.27;;;52.07;;
2888;SDS011;1453;42.708;23.282;2023-12-20T06:37:53;249.18;;;60.20;;
2888;SDS011;1453;42.708;23.282;2023-12-20T06:40:19;173.13;;;55.70;;
2888;SDS011;1453;42.708;23.282;2023-12-20T06:42:45;119.88;;;52.05;;
2888;SDS011;1453;42.708;23.282;2023-12-20T06:45:12;163.50;;;48.40;;
2888;SDS011;1453;42.708;23.282;2023-12-20T06:47:38;149.68;;;49.88;;
2888;SDS011;1453;42.708;23.282;2023-12-20T06:50:05;287.90;;;69.65;;
2888;SDS011;1453;42.708;23.282;2023-12-20T06:52:33;242.85;;;56.90;;
2888;SDS011;1453;42.708;23.282;2023-12-20T06:55:00;221.05;;;53.28;;
2888;SDS011;1453;42.708;23.282;2023-12-20T06:57:26;194.27;;;55.72;;
2888;SDS011;1453;42.708;23.282;2023-12-20T06:59:52;183.23;;;52.03;;
2888;SDS011;1453;42.708;23.282;2023-12-20T07:02:18;311.40;;;72.72;;
2888;SDS011;1453;42.708;23.282;2023-12-20T07:04:47;196.52;;;52.70;;
2888;SDS011;1453;42.708;23.282;2023-12-20T07:07:15;126.82;;;48.47;;
2888;SDS011;1453;42.708;23.282;2023-12-20T07:09:41;164.10;;;50.97;;
2888;SDS011;1453;42.708;23.282;2023-12-20T07:12:08;142.50;;;53.58;;
2888;SDS011;1453;42.708;23.282;2023-12-20T07:14:40;297.95;;;62.45;;
2888;SDS011;1453;42.708;23.282;2023-12-20T07:17:33;140.70;;;50.05;;
2888;SDS011;1453;42.708;23.282;2023-12-20T07:20:00;158.80;;;50.42;;
2888;SDS011;1453;42.708;23.282;2023-12-20T07:22:30;140.18;;;50.28;;
2888;SDS011;1453;42.708;23.282;2023-12-20T07:24:57;135.55;;;51.00;;
2888;SDS011;1453;42.708;23.282;2023-12-20T07:27:24;126.95;;;50.60;;
2888;SDS011;1453;42.708;23.282;2023-12-20T07:29:50;122.03;;;48.42;;
2888;SDS011;1453;42.708;23.282;2023-12-20T07:32:17;127.40;;;49.17;;
2888;SDS011;1453;42.708;23.282;2023-12-20T07:34:47;111.70;;;47.55;;
2888;SDS011;1453;42.708;23.282;2023-12-20T07:37:14;106.35;;;46.05;;
2888;SDS011;1453;42.708;23.282;2023-12-20T07:39:47;100.80;;;45.75;;
2888;SDS011;1453;42.708;23.282;2023-12-20T07:42:13;99.00;;;44.72;;
2888;SDS011;1453;42.708;23.282;2023-12-20T07:44:41;229.40;;;57.13;;
2888;SDS011;1453;42.708;23.282;2023-12-20T07:47:07;141.45;;;50.70;;
2888;SDS011;1453;42.708;23.282;2023-12-20T07:49:34;121.90;;;51.65;;
2888;SDS011;1453;42.708;23.282;2023-12-20T07:52:01;145.07;;;49.72;;
2888;SDS011;1453;42.708;23.282;2023-12-20T07:54:27;255.68;;;61.63;;
2888;SDS011;1453;42.708;23.282;2023-12-20T07:56:53;141.82;;;55.20;;
2888;SDS011;1453;42.708;23.282;2023-12-20T07:59:20;195.27;;;60.90;;
2888;SDS011;1453;42.708;23.282;2023-12-20T08:01:49;167.85;;;64.05;;
2888;SDS011;1453;42.708;23.282;2023-12-20T08:04:20;175.70;;;63.17;;
2888;SDS011;1453;42.708;23.282;2023-12-20T08:06:48;336.40;;;74.68;;
2888;SDS011;1453;42.708;23.282;2023-12-20T08:09:16;214.43;;;66.55;;
2888;SDS011;1453;42.708;23.282;2023-12-20T08:11:46;167.63;;;60.00;;
2888;SDS011;1453;42.708;23.282;2023-12-20T08:14:15;172.02;;;61.00;;
2888;SDS011;1453;42.708;23.282;2023-12-20T08:16:42;160.30;;;63.83;;
2888;SDS011;1453;42.708;23.282;2023-12-20T08:19:08;2.40;;;0.80;;
2888;SDS011;1453;42.708;23.282;2023-12-20T08:21:38;2.40;;;0.80;;
2888;SDS011;1453;42.708;23.282;2023-12-20T08:24:08;2.40;;;0.80;;
2888;SDS011;1453;42.708;23.282;2023-12-20T08:26:42;2.40;;;0.80;;
2888;SDS011;1453;42.708;23.282;2023-12-20T08:29:12;2.40;;;0.80;;
2888;SDS011;1453;42.708;23.282;2023-12-20T08:31:39;11.85;;;11.07;;
2888;SDS011;1453;42.708;23.282;2023-12-20T08:34:05;2.40;;;0.80;;
2888;SDS011;1453;42.708;23.282;2023-12-20T08:36:35;2.60;;;1.38;;
2888;SDS011;1453;42.708;23.282;2023-12-20T08:39:08;2.40;;;0.80;;
2888;SDS011;1453;42.708;23.282;2023-12-20T08:41:36;2.40;;;0.80;;
2888;SDS011;1453;42.708;23.282;2023-12-20T08:44:05;2.40;;;0.80;;
2888;SDS011;1453;42.708;23.282;2023-12-20T08:46:34;2.40;;;0.80;;
2888;SDS011;1453;42.708;23.282;2023-12-20T08:49:04;2.47;;;0.80;;
2888;SDS011;1453;42.708;23.282;2023-12-20T08:51:30;2.42;;;0.80;;
2888;SDS011;1453;42.708;23.282;2023-12-20T08:54:03;43.65;;;39.17;;
2888;SDS011;1453;42.708;23.282;2023-12-20T08:56:35;4.53;;;4.13;;
2888;SDS011;1453;42.708;23.282;2023-12-20T08:59:03;2.50;;;1.00;;
2888;SDS011;1453;42.708;23.282;2023-12-20T09:01:30;2.42;;;0.80;;
2888;SDS011;1453;42.708;23.282;2023-12-20T09:03:56;2.37;;;0.80;;
2888;SDS011;1453;42.708;23.282;2023-12-20T09:06:26;2.40;;;0.80;;
2888;SDS011;1453;42.708;23.282;2023-12-20T09:08:52;2.40;;;0.80;;
2888;SDS011;1453;42.708;23.282;2023-12-20T09:11:18;2.50;;;0.80;;
2888;SDS011;1453;42.708;23.282;2023-12-20T09:13:46;3.00;;;2.30;;
2888;SDS011;1453;42.708;23.282;2023-12-20T09:16:14;2.40;;;0.80;;
2888;SDS011;1453;42.708;23.282;2023-12-20T09:18:41;2.40;;;0.80;;
2888;SDS011;1453;42.708;23.282;2023-12-20T09:21:07;2.80;;;1.00;;
2888;SDS011;1453;42.708;23.282;2023-12-20T09:23:33;3.85;;;3.55;;
2888;SDS011;1453;42.708;23.282;2023-12-20T09:26:02;14.90;;;13.80;;
2888;SDS011;1453;42.708;23.282;2023-12-20T09:28:29;5.65;;;5.15;;
2888;SDS011;1453;42.708;23.282;2023-12-20T09:31:01;2.70;;;2.00;;
2888;SDS011;1453;42.708;23.282;2023-12-20T09:33:30;2.40;;;0.80;;
2888;SDS011;1453;42.708;23.282;2023-12-20T09:35:56;7.88;;;7.20;;
2888;SDS011;1453;42.708;23.282;2023-12-20T09:38:23;2.40;;;0.80;;
2888;SDS011;1453;42.708;23.282;2023-12-20T09:40:49;2.40;;;0.80;;
2888;SDS011;1453;42.708;23.282;2023-12-20T09:43:18;4.65;;;4.28;;
2888;SDS011;1453;42.708;23.282;2023-12-20T09:45:52;2.40;;;0.80;;
2888;SDS011;1453;42.708;23.282;2023-12-20T09:48:19;3.03;;;1.98;;
2888;SDS011;1453;42.708;23.282;2023-12-20T09:50:46;2.40;;;0.80;;
2888;SDS011;1453;42.708;23.282;2023-12-20T09:53:14;36.75;;;34.30;;
2888;SDS011;1453;42.708;23.282;2023-12-20T09:55:41;4.93;;;4.53;;
2888;SDS011;1453;42.708;23.282;2023-12-20T09:58:08;2.50;;;0.80;;
2888;SDS011;1453;42.708;23.282;2023-12-20T10:00:34;2.40;;;0.80;;
2888;SDS011;1453;42.708;23.282;2023-12-20T10:03:00;2.83;;;1.67;;
2888;SDS011;1453;42.708;23.282;2023-12-20T10:05:28;2.40;;;0.90;;
2888;SDS011;1453;42.708;23.282;2023-12-20T10:07:57;10.68;;;9.98;;
2888;SDS011;1453;42.708;23.282;2023-12-20T10:10:26;2.75;;;1.33;;
2888;SDS011;1453;42.708;23.282;2023-12-20T10:13:03;2.40;;;0.88;;
2888;SDS011;1453;42.708;23.282;2023-12-20T10:15:34;2.50;;;0.93;;
2888;SDS011;1453;42.708;23.282;2023-12-20T10:18:01;2.65;;;1.30;;
2888;SDS011;1453;42.708;23.282;2023-12-20T10:20:29;6.13;;;5.57;;
2888;SDS011;1453;42.708;23.282;2023-12-20T10:22:56;2.80;;;1.00;;
2888;SDS011;1453;42.708;23.282;2023-12-20T10:25:24;3.63;;;2.55;;
2888;SDS011;1453;42.708;23.282;2023-12-20T10:30:38;42.53;;;10.73;;
2888;SDS011;1453;42.708;23.282;2023-12-20T10:33:05;2.90;;;1.75;;
2888;SDS011;1453;42.708;23.282;2023-12-20T10:35:35;21.87;;;20.10;;
2888;SDS011;1453;42.708;23.282;2023-12-20T10:38:04;3.63;;;3.17;;
2888;SDS011;1453;42.708;23.282;2023-12-20T10:40:31;5.40;;;4.63;;
2888;SDS011;1453;42.708;23.282;2023-12-20T10:43:03;5.53;;;5.13;;
2888;SDS011;1453;42.708;23.282;2023-12-20T10:45:30;19.13;;;12.70;;
2888;SDS011;1453;42.708;23.282;2023-12-20T10:47:56;3.10;;;1.90;;
2888;SDS011;1453;42.708;23.282;2023-12-20T10:50:27;3.00;;;2.27;;
2888;SDS011;1453;42.708;23.282;2023-12-20T10:52:55;2.57;;;1.17;;
2888;SDS011;1453;42.708;23.282;2023-12-20T10:55:21;12.63;;;4.13;;
2888;SDS011;1453;42.708;23.282;2023-12-20T10:57:51;19.97;;;18.37;;
2888;SDS011;1453;42.708;23.282;2023-12-20T11:00:45;2.40;;;0.90;;
2888;SDS011;1453;42.708;23.282;2023-12-20T11:03:15;2.60;;;1.53;;
2888;SDS011;1453;42.708;23.282;2023-12-20T11:05:56;19.50;;;18.20;;
2888;SDS011;1453;42.708;23.282;2023-12-20T11:08:37;15.57;;;14.60;;
2888;SDS011;1453;42.708;23.282;2023-12-20T11:11:25;9.13;;;8.53;;
2888;SDS011;1453;42.708;23.282;2023-12-20T11:14:12;2.70;;;1.63;;
2888;SDS011;1453;42.708;23.282;2023-12-20T11:17:05;2.40;;;0.90;;
2888;SDS011;1453;42.708;23.282;2023-12-20T11:22:21;4.70;;;4.30;;
2888;SDS011;1453;42.708;23.282;2023-12-20T11:24:50;2.60;;;1.42;;
2888;SDS011;1453;42.708;23.282;2023-12-20T11:27:18;2.60;;;1.23;;
2888;SDS011;1453;42.708;23.282;2023-12-20T11:29:55;2.70;;;1.75;;
2888;SDS011;1453;42.708;23.282;2023-12-20T11:34:58;2.40;;;0.90;;
2888;SDS011;1453;42.708;23.282;2023-12-20T11:37:46;2.40;;;0.80;;
2888;SDS011;1453;42.708;23.282;2023-12-20T11:40:16;213.00;;;108.38;;
2888;SDS011;1453;42.708;23.282;2023-12-20T11:42:49;195.37;;;105.90;;
2888;SDS011;1453;42.708;23.282;2023-12-20T11:45:21;183.33;;;102.03;;
2888;SDS011;1453;42.708;23.282;2023-12-20T11:47:50;196.10;;;108.50;;
2888;SDS011;1453;42.708;23.282;2023-12-20T11:50:18;195.50;;;106.60;;
2888;SDS011;1453;42.708;23.282;2023-12-20T11:52:45;199.07;;;107.97;;
2888;SDS011;1453;42.708;23.282;2023-12-20T11:55:12;203.93;;;106.93;;
2888;SDS011;1453;42.708;23.282;2023-12-20T11:57:38;198.83;;;106.67;;
2888;SDS011;1453;42.708;23.282;2023-12-20T12:00:05;201.77;;;112.93;;
2888;SDS011;1453;42.708;23.282;2023-12-20T12:02:31;217.00;;;114.83;;
2888;SDS011;1453;42.708;23.282;2023-12-20T12:04:59;196.73;;;110.73;;
2888;SDS011;1453;42.708;23.282;2023-12-20T12:07:25;190.40;;;107.73;;
2888;SDS011;1453;42.708;23.282;2023-12-20T12:09:51;201.20;;;111.37;;
2888;SDS011;1453;42.708;23.282;2023-12-20T12:12:17;208.10;;;111.50;;
2888;SDS011;1453;42.708;23.282;2023-12-20T12:14:44;187.07;;;102.93;;
2888;SDS011;1453;42.708;23.282;2023-12-20T12:17:14;195.80;;;104.10;;
2888;SDS011;1453;42.708;23.282;2023-12-20T12:19:41;182.80;;;98.60;;
2888;SDS011;1453;42.708;23.282;2023-12-20T12:22:09;179.07;;;98.43;;
2888;SDS011;1453;42.708;23.282;2023-12-20T12:24:41;175.30;;;93.83;;
2888;SDS011;1453;42.708;23.282;2023-12-20T12:27:10;170.67;;;96.47;;
2888;SDS011;1453;42.708;23.282;2023-12-20T12:29:38;160.67;;;89.47;;
2888;SDS011;1453;42.708;23.282;2023-12-20T12:32:05;156.77;;;89.83;;
2888;SDS011;1453;42.708;23.282;2023-12-20T12:34:33;148.40;;;85.47;;
2888;SDS011;1453;42.708;23.282;2023-12-20T12:37:00;145.70;;;80.70;;
2888;SDS011;1453;42.708;23.282;2023-12-20T12:39:27;154.20;;;80.43;;
2888;SDS011;1453;42.708;23.282;2023-12-20T12:41:56;135.03;;;77.80;;
2888;SDS011;1453;42.708;23.282;2023-12-20T12:44:22;146.33;;;79.80;;
2888;SDS011;1453;42.708;23.282;2023-12-20T12:46:51;141.73;;;75.17;;
2888;SDS011;1453;42.708;23.282;2023-12-20T12:49:19;155.33;;;77.50;;
2888;SDS011;1453;42.708;23.282;2023-12-20T12:51:48;138.57;;;75.53;;
2888;SDS011;1453;42.708;23.282;2023-12-20T12:54:14;144.07;;;79.07;;
2888;SDS011;1453;42.708;23.282;2023-12-20T12:56:43;149.17;;;72.97;;
2888;SDS011;1453;42.708;23.282;2023-12-20T12:59:10;139.20;;;72.83;;
2888;SDS011;1453;42.708;23.282;2023-12-20T13:01:36;152.67;;;74.47;;
2888;SDS011;1453;42.708;23.282;2023-12-20T13:04:02;149.70;;;74.10;;
2888;SDS011;1453;42.708;23.282;2023-12-20T13:06:31;152.57;;;70.70;;
2888;SDS011;1453;42.708;23.282;2023-12-20T13:08:57;139.30;;;69.72;;
2888;SDS011;1453;42.708;23.282;2023-12-20T13:11:23;130.57;;;69.10;;
2888;SDS011;1453;42.708;23.282;2023-12-20T13:13:50;147.60;;;69.28;;
2888;SDS011;1453;42.708;23.282;2023-12-20T13:16:16;143.20;;;68.93;;
2888;SDS011;1453;42.708;23.282;2023-12-20T13:18:42;158.87;;;70.80;;
2888;SDS011;1453;42.708;23.282;2023-12-20T13:21:08;168.93;;;69.43;;
2888;SDS011;1453;42.708;23.282;2023-12-20T13:23:34;153.80;;;70.82;;
2888;SDS011;1453;42.708;23.282;2023-12-20T13:26:01;169.93;;;73.80;;
2888;SDS011;1453;42.708;23.282;2023-12-20T13:28:28;164.45;;;72.97;;
2888;SDS011;1453;42.708;23.282;2023-12-20T13:30:54;172.30;;;74.87;;
2888;SDS011;1453;42.708;23.282;2023-12-20T13:33:20;164.53;;;73.80;;
2888;SDS011;1453;42.708;23.282;2023-12-20T13:35:46;159.30;;;73.07;;
2888;SDS011;1453;42.708;23.282;2023-12-20T13:38:12;161.50;;;67.53;;
2888;SDS011;1453;42.708;23.282;2023-12-20T13:40:39;164.73;;;67.38;;
2888;SDS011;1453;42.708;23.282;2023-12-20T13:43:05;178.35;;;70.25;;
2888;SDS011;1453;42.708;23.282;2023-12-20T13:45:31;168.30;;;68.37;;
2888;SDS011;1453;42.708;23.282;2023-12-20T13:47:58;176.65;;;70.18;;
2888;SDS011;1453;42.708;23.282;2023-12-20T13:50:24;178.32;;;70.60;;
2888;SDS011;1453;42.708;23.282;2023-12-20T13:52:51;187.20;;;73.78;;
2888;SDS011;1453;42.708;23.282;2023-12-20T13:55:17;177.38;;;71.65;;
2888;SDS011;1453;42.708;23.282;2023-12-20T13:57:47;162.82;;;72.07;;
2888;SDS011;1453;42.708;23.282;2023-12-20T14:00:13;169.20;;;70.40;;
2888;SDS011;1453;42.708;23.282;2023-12-20T14:02:43;164.15;;;69.47;;
2888;SDS011;1453;42.708;23.282;2023-12-20T14:05:11;177.00;;;73.00;;
2888;SDS011;1453;42.708;23.282;2023-12-20T14:07:39;182.80;;;72.68;;
2888;SDS011;1453;42.708;23.282;2023-12-20T14:10:05;187.20;;;75.57;;
2888;SDS011;1453;42.708;23.282;2023-12-20T14:12:32;181.75;;;74.60;;
2888;SDS011;1453;42.708;23.282;2023-12-20T14:15:01;190.15;;;75.30;;
2888;SDS011;1453;42.708;23.282;2023-12-20T14:17:28;188.52;;;75.55;;
2888;SDS011;1453;42.708;23.282;2023-12-20T14:19:56;186.45;;;77.20;;
2888;SDS011;1453;42.708;23.282;2023-12-20T14:22:22;186.43;;;77.37;;
2888;SDS011;1453;42.708;23.282;2023-12-20T14:24:49;201.75;;;84.88;;
2888;SDS011;1453;42.708;23.282;2023-12-20T14:27:15;221.53;;;87.43;;
2888;SDS011;1453;42.708;23.282;2023-12-20T14:29:41;241.97;;;92.33;;
2888;SDS011;1453;42.708;23.282;2023-12-20T14:32:07;233.73;;;91.83;;
2888;SDS011;1453;42.708;23.282;2023-12-20T14:34:33;230.63;;;89.57;;
2888;SDS011;1453;42.708;23.282;2023-12-20T14:36:59;261.73;;;99.95;;
2888;SDS011;1453;42.708;23.282;2023-12-20T14:39:25;261.13;;;96.10;;
2888;SDS011;1453;42.708;23.282;2023-12-20T14:41:52;239.80;;;89.72;;
2888;SDS011;1453;42.708;23.282;2023-12-20T14:44:19;261.67;;;96.80;;